createdAt,value
2022-08-04T00:00:10.755Z,97397.31
2022-08-04T00:02:47.332Z,97412.91
2022-08-04T00:05:34.006Z,97385.31
2022-08-04T00:08:24.855Z,97410.34
2022-08-04T00:10:54.414Z,97412.03
2022-08-04T00:13:28.448Z,97403.41
2022-08-04T00:15:58.250Z,97400.00
2022-08-04T00:18:32.729Z,97401.69
2022-08-04T00:21:00.563Z,97393.06
2022-08-04T00:23:27.273Z,97405.16
2022-08-04T00:26:13.812Z,97403.41
2022-08-04T00:28:40.395Z,97404.28
2022-08-04T00:31:08.897Z,97410.31
2022-08-04T00:33:35.478Z,97410.31
2022-08-04T00:36:02.067Z,97392.16
2022-08-04T00:38:28.644Z,97393.00
2022-08-04T00:41:09.031Z,97399.91
2022-08-04T00:43:57.485Z,97408.53
2022-08-04T00:46:40.099Z,97412.00
2022-08-04T00:49:18.780Z,97417.19
2022-08-04T00:52:32.892Z,97415.47
2022-08-04T00:55:47.380Z,97409.44
2022-08-04T00:58:39.752Z,97412.03
2022-08-04T01:01:08.843Z,97413.72
2022-08-04T01:03:39.596Z,97411.13
2022-08-04T01:06:18.152Z,97390.41
2022-08-04T01:08:56.740Z,97402.53
2022-08-04T01:11:29.048Z,97408.53
2022-08-04T01:14:00.677Z,97413.69
2022-08-04T01:16:27.291Z,97403.38
2022-08-04T01:19:00.552Z,97410.28
2022-08-04T01:21:30.001Z,97415.44
2022-08-04T01:24:05.604Z,97407.72
2022-08-04T01:26:58.246Z,97406.00
2022-08-04T01:29:29.294Z,97409.41
2022-08-04T01:32:47.093Z,97399.97
2022-08-04T01:35:46.813Z,97406.88
2022-08-04T01:38:21.591Z,97406.88
2022-08-04T01:40:49.672Z,97404.28
2022-08-04T01:43:16.202Z,97409.44
2022-08-04T01:45:42.810Z,97400.00
2022-08-04T01:48:09.408Z,97401.66
2022-08-04T01:50:36.289Z,97403.34
2022-08-04T01:53:03.465Z,97401.69
2022-08-04T01:55:54.407Z,97407.72
2022-08-04T01:58:18.787Z,97406.00
2022-08-04T02:00:56.563Z,97395.66
2022-08-04T02:03:23.267Z,97400.81
2022-08-04T02:06:28.485Z,97412.88
2022-08-04T02:09:54.158Z,97403.41
2022-08-04T02:12:34.060Z,97407.72
2022-08-04T02:15:04.383Z,97397.34
2022-08-04T02:17:43.929Z,97393.88
2022-08-04T02:20:22.505Z,97404.28
2022-08-04T02:22:58.323Z,97410.28
2022-08-04T02:25:26.353Z,97405.97
2022-08-04T02:28:14.599Z,97408.53
2022-08-04T02:30:47.299Z,97415.44
2022-08-04T02:33:13.963Z,97403.34
2022-08-04T02:35:40.494Z,97402.53
2022-08-04T02:38:25.466Z,97398.22
2022-08-04T02:40:53.427Z,97405.16
2022-08-04T02:43:50.724Z,97406.88
2022-08-04T02:46:18.188Z,97408.56
2022-08-04T02:48:46.246Z,97393.94
2022-08-04T02:51:13.764Z,97398.25
2022-08-04T02:53:41.213Z,97393.13
2022-08-04T02:56:09.004Z,97390.53
2022-08-04T02:58:36.070Z,97379.34
2022-08-04T03:01:03.593Z,97373.34
2022-08-04T03:03:52.188Z,97385.41
2022-08-04T03:06:46.357Z,97380.28
2022-08-04T03:09:35.066Z,97382.81
2022-08-04T03:12:23.405Z,97387.16
2022-08-04T03:15:17.242Z,97387.97
2022-08-04T03:17:52.873Z,97390.53
2022-08-04T03:20:47.838Z,97391.41
2022-08-04T03:23:25.296Z,97391.41
2022-08-04T03:26:16.220Z,97390.53
2022-08-04T03:29:04.473Z,97389.75
2022-08-04T03:31:39.101Z,97399.13
2022-08-04T03:34:43.315Z,97397.41
2022-08-04T03:37:57.453Z,97400.81
2022-08-04T03:40:34.665Z,97397.41
2022-08-04T03:43:58.463Z,97387.88
2022-08-04T03:46:13.365Z,97398.25
2022-08-04T03:48:57.642Z,97393.97
2022-08-04T03:52:01.833Z,97399.13
2022-08-04T03:55:00.612Z,97402.56
2022-08-04T03:58:02.383Z,97398.25
2022-08-04T04:00:45.092Z,97402.56
2022-08-04T04:03:38.896Z,97405.97
2022-08-04T04:06:17.513Z,97398.25
2022-08-04T04:08:59.495Z,97394.84
2022-08-04T04:11:56.326Z,97401.69
2022-08-04T04:14:27.558Z,97395.66
2022-08-04T04:17:10.833Z,97388.78
2022-08-04T04:19:37.357Z,97396.50
2022-08-04T04:22:22.408Z,97401.63
2022-08-04T04:24:51.884Z,97399.88
2022-08-04T04:27:30.920Z,97403.28
2022-08-04T04:30:03.375Z,97405.84
2022-08-04T04:32:55.272Z,97399.81
2022-08-04T04:35:54.170Z,97410.09
2022-08-04T04:38:35.544Z,97416.06
2022-08-04T04:41:26.500Z,97411.75
2022-08-04T04:44:26.220Z,97414.31
2022-08-04T04:48:07.437Z,97408.25
2022-08-04T04:50:15.876Z,97420.25
2022-08-04T04:52:47.736Z,97421.94
2022-08-04T04:55:28.976Z,97415.06
2022-08-04T04:57:57.890Z,97403.78
2022-08-04T05:00:26.390Z,97419.31
2022-08-04T05:03:01.178Z,97416.75
2022-08-04T05:05:53.711Z,97421.00
2022-08-04T05:08:43.670Z,97420.19
2022-08-04T05:11:45.415Z,97419.31
2022-08-04T05:14:37.803Z,97412.41
2022-08-04T05:17:11.392Z,97427.03
2022-08-04T05:19:59.849Z,97431.31
2022-08-04T05:22:37.028Z,97437.34
2022-08-04T05:25:09.088Z,97422.66
2022-08-04T05:27:55.761Z,97430.50
2022-08-04T05:30:22.319Z,97427.03
2022-08-04T05:32:54.970Z,97429.66
2022-08-04T05:35:56.307Z,97431.34
2022-08-04T05:38:20.859Z,97424.50
2022-08-04T05:40:47.507Z,97421.06
2022-08-04T05:43:14.039Z,97433.09
2022-08-04T05:45:40.633Z,97421.00
2022-08-04T05:48:08.100Z,97415.91
2022-08-04T05:50:34.761Z,97416.78
2022-08-04T05:53:02.176Z,97417.56
2022-08-04T05:55:57.115Z,97417.66
2022-08-04T05:58:16.958Z,97430.59
2022-08-04T06:00:43.523Z,97440.88
2022-08-04T06:03:19.752Z,97343.31
2022-08-04T06:05:46.341Z,97425.47
2022-08-04T06:08:13.819Z,97427.19
2022-08-04T06:10:40.799Z,97425.47
2022-08-04T06:13:08.701Z,97428.88
2022-08-04T06:15:37.510Z,97421.19
2022-08-04T06:18:33.368Z,97407.41
2022-08-04T06:20:59.091Z,97414.31
2022-08-04T06:23:25.647Z,97404.81
2022-08-04T06:25:54.227Z,97416.09
2022-08-04T06:28:20.793Z,97412.66
2022-08-04T06:30:49.770Z,97416.94
2022-08-04T06:33:33.633Z,97407.47
2022-08-04T06:36:20.204Z,97429.03
2022-08-04T06:38:46.731Z,97424.75
2022-08-04T06:41:24.858Z,97423.06
2022-08-04T06:43:51.821Z,97414.44
2022-08-04T06:46:18.748Z,97418.78
2022-08-04T06:48:45.441Z,97423.94
2022-08-04T06:51:26.465Z,97420.53
2022-08-04T06:53:59.516Z,97426.53
2022-08-04T06:56:26.126Z,97423.97
2022-08-04T06:58:53.438Z,97412.78
2022-08-04T07:01:20.499Z,97421.41
2022-08-04T07:03:50.648Z,97419.72
2022-08-04T07:06:18.944Z,97405.06
2022-08-04T07:08:45.502Z,97415.38
2022-08-04T07:11:12.086Z,97418.78
2022-08-04T07:13:43.251Z,97416.25
2022-08-04T07:16:13.946Z,97418.84
2022-08-04T07:18:40.533Z,97425.78
2022-08-04T07:21:07.585Z,97413.63
2022-08-04T07:23:34.232Z,97436.09
2022-08-04T07:26:12.732Z,97413.66
2022-08-04T07:28:40.587Z,97424.94
2022-08-04T07:31:07.126Z,97430.09
2022-08-04T07:33:33.670Z,97432.66
2022-08-04T07:36:04.953Z,97404.09
2022-08-04T07:38:37.865Z,97435.25
2022-08-04T07:43:59.775Z,97425.78
2022-08-04T07:46:26.380Z,97423.19
2022-08-04T07:48:59.247Z,97409.38
2022-08-04T07:51:25.798Z,97435.28
2022-08-04T07:53:55.108Z,97431.03
2022-08-04T07:56:22.736Z,97429.28
2022-08-04T07:58:50.431Z,97426.72
2022-08-04T08:01:17.350Z,97429.28
2022-08-04T08:03:44.006Z,97414.66
2022-08-04T08:06:30.734Z,97422.44
2022-08-04T08:08:57.828Z,97425.03
2022-08-04T08:11:24.359Z,97407.75
2022-08-04T08:14:10.914Z,97414.72
2022-08-04T08:16:37.865Z,97415.56
2022-08-04T08:19:04.553Z,97400.88
2022-08-04T08:21:32.811Z,97417.31
2022-08-04T08:23:59.498Z,97415.63
2022-08-04T08:26:26.279Z,97409.53
2022-08-04T08:28:55.083Z,97413.06
2022-08-04T08:31:21.743Z,97414.78
2022-08-04T08:34:08.328Z,97415.66
2022-08-04T08:36:38.095Z,97413.06
2022-08-04T08:39:12.523Z,97409.66
2022-08-04T08:42:03.562Z,97405.38
2022-08-04T08:44:43.339Z,97404.50
2022-08-04T08:48:04.595Z,97399.22
2022-08-04T08:50:35.310Z,97413.09
2022-08-04T08:53:34.125Z,97411.38
2022-08-04T08:56:09.873Z,97408.78
2022-08-04T08:59:15.424Z,97413.13
2022-08-04T09:01:54.326Z,97402.78
2022-08-04T09:04:39.719Z,97413.97
2022-08-04T09:07:27.954Z,97412.25
2022-08-04T09:10:06.208Z,97416.53
2022-08-04T09:12:37.093Z,97411.38
2022-08-04T09:15:08.011Z,97408.78
2022-08-04T09:17:57.804Z,97398.47
2022-08-04T09:20:27.278Z,97407.13
2022-08-04T09:23:21.379Z,97405.44
2022-08-04T09:26:00.051Z,97399.41
2022-08-04T09:28:52.400Z,97390.75
2022-08-04T09:31:16.996Z,97382.97
2022-08-04T09:34:09.829Z,97402.84
2022-08-04T09:36:47.973Z,97388.16
2022-08-04T09:39:28.687Z,97394.25
2022-08-04T09:42:25.945Z,97394.25
2022-08-04T09:45:11.055Z,97400.31
2022-08-04T09:47:59.440Z,97390.84
2022-08-04T09:50:46.898Z,97402.88
2022-08-04T09:53:31.581Z,97380.53
2022-08-04T09:56:17.421Z,97380.56
2022-08-04T09:58:50.424Z,97355.44
2022-08-04T10:01:23.051Z,97369.38
2022-08-04T10:03:52.519Z,97359.91
2022-08-04T10:07:10.327Z,97373.72
2022-08-04T10:10:03.690Z,97368.56
2022-08-04T10:12:43.971Z,97355.59
2022-08-04T10:15:12.797Z,97366.00
2022-08-04T10:17:59.517Z,97369.44
2022-08-04T10:20:47.115Z,97366.00
2022-08-04T10:23:25.789Z,97359.16
2022-08-04T10:26:23.660Z,97355.69
2022-08-04T10:29:14.829Z,97356.56
2022-08-04T10:31:46.695Z,97353.13
2022-08-04T10:34:16.751Z,97355.69
2022-08-04T10:37:08.310Z,97351.41
2022-08-04T10:40:03.686Z,97337.56
2022-08-04T10:42:30.353Z,97349.66
2022-08-04T10:45:12.520Z,97345.38
2022-08-04T10:47:43.957Z,97347.09
2022-08-04T10:50:19.705Z,97341.09
2022-08-04T10:52:55.930Z,97334.16
2022-08-04T10:56:06.399Z,97337.69
2022-08-04T10:58:47.893Z,97333.34
2022-08-04T11:02:00.893Z,97341.09
2022-08-04T11:04:31.664Z,97335.94
2022-08-04T11:06:58.809Z,97340.22
2022-08-04T11:09:25.503Z,97337.63
2022-08-04T11:12:02.101Z,97317.84
2022-08-04T11:14:36.424Z,97330.78
2022-08-04T11:17:29.581Z,97331.63
2022-08-04T11:20:34.545Z,97327.34
2022-08-04T11:23:10.939Z,97329.03
2022-08-04T11:25:58.488Z,97325.66
2022-08-04T11:29:03.660Z,97320.50
2022-08-04T11:31:36.108Z,97322.19
2022-08-04T11:34:06.129Z,97317.91
2022-08-04T11:36:46.672Z,97317.03
2022-08-04T11:39:35.075Z,97314.47
2022-08-04T11:42:24.182Z,97307.56
2022-08-04T11:45:01.917Z,97318.75
2022-08-04T11:48:06.059Z,97318.75
2022-08-04T11:50:33.882Z,97312.78
2022-08-04T11:53:00.443Z,97309.31
2022-08-04T11:55:27.573Z,97307.63
2022-08-04T11:57:54.548Z,97313.59
2022-08-04T12:00:21.548Z,97307.63
2022-08-04T12:03:25.666Z,97306.75
2022-08-04T12:05:59.873Z,97302.47
2022-08-04T12:08:36.639Z,97299.03
2022-08-04T12:11:37.206Z,97304.19
2022-08-04T12:14:12.334Z,97299.88
2022-08-04T12:16:45.408Z,97296.41
2022-08-04T12:19:34.969Z,97296.44
2022-08-04T12:22:23.428Z,97300.72
2022-08-04T12:25:07.476Z,97305.88
2022-08-04T12:27:47.256Z,97286.13
2022-08-04T12:31:01.431Z,97296.47
2022-08-04T12:33:04.395Z,97291.31
2022-08-04T12:35:35.536Z,97286.16
2022-08-04T12:38:04.962Z,97284.41
2022-08-04T12:40:52.044Z,97288.75
2022-08-04T12:43:28.028Z,97288.75
2022-08-04T12:45:56.953Z,97281.03
2022-08-04T12:48:23.983Z,97280.16
2022-08-04T12:50:55.619Z,97269.78
2022-08-04T12:53:32.561Z,97253.44
2022-08-04T12:56:01.358Z,97258.69
2022-08-04T12:58:43.282Z,97274.16
2022-08-04T13:02:09.176Z,97271.59
2022-08-04T13:04:33.844Z,97275.00
2022-08-04T13:07:11.176Z,97269.00
2022-08-04T13:09:37.908Z,97250.03
2022-08-04T13:12:11.409Z,97263.00
2022-08-04T13:14:40.689Z,97238.00
2022-08-04T13:17:08.660Z,97253.59
2022-08-04T13:19:41.132Z,97253.59
2022-08-04T13:22:08.245Z,97247.56
2022-08-04T13:24:56.276Z,97248.47
2022-08-04T13:27:21.503Z,97247.59
2022-08-04T13:29:58.986Z,97245.03
2022-08-04T13:32:27.850Z,97230.41
2022-08-04T13:34:55.489Z,97239.00
2022-08-04T13:37:26.716Z,97233.81
2022-08-04T13:39:55.811Z,97221.78
2022-08-04T13:42:22.808Z,97233.03
2022-08-04T13:44:49.994Z,97230.44
2022-08-04T13:47:20.758Z,97229.59
2022-08-04T13:50:11.737Z,97221.88
2022-08-04T13:52:40.314Z,97227.00
2022-08-04T13:55:07.152Z,97226.16
2022-08-04T13:57:36.747Z,97211.50
2022-08-04T14:00:07.313Z,97210.66
2022-08-04T14:02:34.839Z,97208.09
2022-08-04T14:05:05.057Z,97218.44
2022-08-04T14:07:32.034Z,97204.66
2022-08-04T14:10:03.450Z,97215.03
2022-08-04T14:12:45.651Z,97186.56
2022-08-04T14:16:01.021Z,97217.63
2022-08-04T14:18:29.651Z,97209.91
2022-08-04T14:21:16.302Z,97205.59
2022-08-04T14:23:50.673Z,97204.78
2022-08-04T14:26:19.925Z,97209.03
2022-08-04T14:29:25.688Z,97204.78
2022-08-04T14:31:33.075Z,97197.06
2022-08-04T14:34:04.100Z,97178.13
2022-08-04T14:37:04.673Z,97190.19
2022-08-04T14:40:18.879Z,97127.25
2022-08-04T14:42:44.029Z,97190.19
2022-08-04T14:45:10.675Z,97185.03
2022-08-04T14:47:52.403Z,97188.50
2022-08-04T14:50:19.926Z,97193.66
2022-08-04T14:52:46.462Z,97183.34
2022-08-04T14:55:23.675Z,97191.09
2022-08-04T14:58:33.799Z,97185.94
2022-08-04T15:00:37.315Z,97188.50
2022-08-04T15:03:11.049Z,97181.69
2022-08-04T15:06:01.036Z,97181.66
2022-08-04T15:08:29.206Z,97175.63
2022-08-04T15:11:03.224Z,97181.69
2022-08-04T15:13:33.154Z,97183.38
2022-08-04T15:16:06.177Z,97180.81
2022-08-04T15:18:36.064Z,97164.44
2022-08-04T15:21:03.570Z,97167.91
2022-08-04T15:23:37.236Z,97156.72
2022-08-04T15:26:07.832Z,97173.97
2022-08-04T15:28:34.463Z,97178.25
2022-08-04T15:31:01.808Z,97162.81
2022-08-04T15:33:33.597Z,97163.69
2022-08-04T15:36:15.790Z,97166.25
2022-08-04T15:38:49.771Z,97155.94
2022-08-04T15:41:24.051Z,97162.81
2022-08-04T15:44:00.491Z,97152.50
2022-08-04T15:46:47.025Z,97160.25
2022-08-04T15:49:23.406Z,97152.53
2022-08-04T15:52:19.273Z,97157.69
2022-08-04T15:54:52.700Z,97149.97
2022-08-04T15:57:44.027Z,97144.81
2022-08-04T16:00:14.869Z,97142.25
2022-08-04T16:02:43.591Z,97143.09
2022-08-04T16:05:17.921Z,97140.53
2022-08-04T16:07:56.659Z,97143.13
2022-08-04T16:10:35.237Z,97143.13
2022-08-04T16:13:15.312Z,97138.81
2022-08-04T16:15:46.767Z,97137.97
2022-08-04T16:18:26.464Z,97125.91
2022-08-04T16:20:58.448Z,97139.69
2022-08-04T16:23:56.088Z,97135.41
2022-08-04T16:26:36.784Z,97135.41
2022-08-04T16:29:24.250Z,97134.53
2022-08-04T16:32:06.474Z,97138.81
2022-08-04T16:34:49.220Z,97139.69
2022-08-04T16:37:18.026Z,97128.50
2022-08-04T16:39:50.219Z,97149.97
2022-08-04T16:42:31.712Z,97129.38
2022-08-04T16:45:02.263Z,97130.25
2022-08-04T16:47:47.213Z,97127.66
2022-08-04T16:50:21.138Z,97125.91
2022-08-04T16:52:49.032Z,97123.31
2022-08-04T16:55:16.420Z,97123.31
2022-08-04T16:57:46.597Z,97123.31
2022-08-04T17:00:13.400Z,97122.50
2022-08-04T17:02:39.928Z,97116.44
2022-08-04T17:05:11.010Z,97117.34
2022-08-04T17:08:26.912Z,97114.72
2022-08-04T17:10:42.336Z,97111.31
2022-08-04T17:14:04.011Z,97110.44
2022-08-04T17:16:18.441Z,97108.75
2022-08-04T17:18:47.519Z,97104.44
2022-08-04T17:21:19.981Z,97112.16
2022-08-04T17:24:14.361Z,97109.59
2022-08-04T17:26:41.617Z,97103.59
2022-08-04T17:29:12.083Z,97089.78
2022-08-04T17:31:39.905Z,97107.03
2022-08-04T17:34:16.557Z,97094.97
2022-08-04T17:36:46.094Z,97099.28
2022-08-04T17:39:21.399Z,97094.97
2022-08-04T17:41:49.232Z,97101.88
2022-08-04T17:44:16.624Z,97092.38
2022-08-04T17:46:48.260Z,97095.84
2022-08-04T17:49:18.195Z,97100.13
2022-08-04T17:52:04.548Z,97102.69
2022-08-04T17:54:37.444Z,97102.69
2022-08-04T17:57:20.042Z,97102.69
2022-08-04T17:59:57.105Z,97099.28
2022-08-04T18:02:33.562Z,97095.84
2022-08-04T18:05:07.770Z,97100.13
2022-08-04T18:08:42.718Z,97099.28
2022-08-04T18:10:44.580Z,97082.06
2022-08-04T18:13:23.500Z,97100.97
2022-08-04T18:15:51.191Z,97094.13
2022-08-04T18:18:19.837Z,97091.56
2022-08-04T18:20:50.156Z,97102.69
2022-08-04T18:23:17.023Z,97089.81
2022-08-04T18:25:51.404Z,97100.13
2022-08-04T18:28:26.400Z,97094.13
2022-08-04T18:30:55.949Z,97082.09
2022-08-04T18:33:39.803Z,97097.53
2022-08-04T18:36:33.230Z,97098.41
2022-08-04T18:39:12.170Z,97098.41
2022-08-04T18:42:00.994Z,97095.84
2022-08-04T18:44:29.249Z,97099.25
2022-08-04T18:46:56.608Z,97101.84
2022-08-04T18:51:01.667Z,97106.13
2022-08-04T18:52:16.123Z,97115.56
2022-08-04T18:54:42.884Z,97109.56
2022-08-04T18:57:32.478Z,97110.41
2022-08-04T18:59:56.696Z,97110.41
2022-08-04T19:02:23.523Z,97112.16
2022-08-04T19:04:53.153Z,97119.88
2022-08-04T19:07:29.142Z,97119.00
2022-08-04T19:09:58.010Z,97121.59
2022-08-04T19:12:28.151Z,97122.41
2022-08-04T19:14:58.316Z,97127.59
2022-08-04T19:17:53.506Z,97126.75
2022-08-04T19:20:16.145Z,97131.00
2022-08-04T19:26:01.438Z,97134.44
2022-08-04T19:28:28.129Z,97130.13
2022-08-04T19:30:58.744Z,97136.13
2022-08-04T19:33:25.610Z,97164.44
2022-08-04T19:35:57.007Z,97152.44
2022-08-04T19:38:23.723Z,97153.34
2022-08-04T19:40:52.792Z,97117.13
2022-08-04T19:43:20.816Z,97159.31
2022-08-04T19:45:49.689Z,97159.31
2022-08-04T19:48:19.541Z,97165.31
2022-08-04T19:50:48.421Z,97154.16
2022-08-04T19:53:19.466Z,97161.88
2022-08-04T19:58:33.345Z,97167.91
2022-08-04T20:00:59.881Z,97170.47
2022-08-04T20:04:10.068Z,97177.34
2022-08-04T20:06:13.231Z,97169.59
2022-08-04T20:08:48.445Z,97167.03
2022-08-04T20:11:15.889Z,97172.19
2022-08-04T20:13:42.607Z,97173.03
2022-08-04T20:16:28.503Z,97176.50
2022-08-04T20:19:00.973Z,97180.75
2022-08-04T20:21:53.726Z,97185.06
2022-08-04T20:24:38.205Z,97182.47
2022-08-04T20:27:04.834Z,97178.16
2022-08-04T20:29:40.335Z,97187.63
2022-08-04T20:32:09.695Z,97186.75
2022-08-04T20:34:36.996Z,97185.03
2022-08-04T20:37:03.840Z,97193.63
2022-08-04T20:39:30.735Z,97181.63
2022-08-04T20:41:57.464Z,97185.03
2022-08-04T20:44:24.191Z,97189.34
2022-08-04T20:46:51.013Z,97179.88
2022-08-04T20:49:17.581Z,97175.59
2022-08-04T20:51:44.327Z,97185.03
2022-08-04T20:54:16.667Z,97179.06
2022-08-04T20:56:50.454Z,97187.59
2022-08-04T20:59:18.043Z,97182.47
2022-08-04T21:01:45.402Z,97184.19
2022-08-04T21:04:34.299Z,97177.25
2022-08-04T21:07:02.965Z,97194.47
2022-08-04T21:09:38.273Z,97190.16
2022-08-04T21:12:10.148Z,97196.16
2022-08-04T21:14:36.739Z,97198.75
2022-08-04T21:17:03.818Z,97199.59
2022-08-04T21:19:31.661Z,97196.16
2022-08-04T21:21:58.276Z,97201.31
2022-08-04T21:24:26.590Z,97198.69
2022-08-04T21:26:56.673Z,97184.16
2022-08-04T21:29:24.216Z,97190.13
2022-08-04T21:32:05.698Z,97190.13
2022-08-04T21:37:19.164Z,97191.00
2022-08-04T21:39:50.659Z,97190.97
2022-08-04T21:42:29.462Z,97197.84
2022-08-04T21:45:09.683Z,97197.00
2022-08-04T21:47:46.431Z,97194.44
2022-08-04T21:50:20.040Z,97189.28
2022-08-04T21:52:47.869Z,97197.00
2022-08-04T21:55:15.606Z,97192.69
2022-08-04T21:57:42.617Z,97197.81
2022-08-04T22:00:10.894Z,97197.81
2022-08-04T22:02:45.100Z,97196.13
2022-08-04T22:05:11.892Z,97197.81
2022-08-04T22:07:49.891Z,97190.09
2022-08-04T22:10:22.560Z,97199.56
2022-08-04T22:12:59.032Z,97200.38
2022-08-04T22:16:03.728Z,97203.84
2022-08-04T22:18:12.164Z,97195.25
2022-08-04T22:20:38.981Z,97193.53
2022-08-04T22:23:16.759Z,97192.66
2022-08-04T22:25:44.976Z,97184.13
2022-08-04T22:28:22.494Z,97183.25
2022-08-04T22:30:54.632Z,97187.53
2022-08-04T22:33:22.756Z,97190.97
2022-08-04T22:35:50.014Z,97187.53
2022-08-04T22:38:21.296Z,97184.13
2022-08-04T22:40:56.870Z,97187.53
2022-08-04T22:43:33.218Z,97175.53
2022-08-04T22:46:03.534Z,97182.38
2022-08-04T22:48:32.033Z,97178.97
2022-08-04T22:50:59.366Z,97171.19
2022-08-04T22:53:25.900Z,97182.38
2022-08-04T22:56:07.009Z,97179.78
2022-08-04T22:58:40.256Z,97178.94
2022-08-04T23:01:07.983Z,97184.94
2022-08-04T23:03:37.485Z,97181.53
2022-08-04T23:06:10.776Z,97187.50
2022-08-04T23:08:39.051Z,97178.06
2022-08-04T23:11:10.132Z,97178.94
2022-08-04T23:13:37.010Z,97185.78
2022-08-04T23:16:05.412Z,97172.94
2022-08-04T23:18:36.336Z,97168.63
2022-08-04T23:21:07.639Z,97183.22
2022-08-04T23:23:34.283Z,97180.66
2022-08-04T23:26:07.884Z,97184.09
2022-08-04T23:28:35.268Z,97183.22
2022-08-04T23:31:02.971Z,97184.94
2022-08-04T23:33:51.148Z,97190.06
2022-08-04T23:36:16.301Z,97171.22
2022-08-04T23:38:43.242Z,97183.22
2022-08-04T23:41:13.823Z,97172.91
2022-08-04T23:43:55.419Z,97179.78
2022-08-04T23:46:22.688Z,97187.50
2022-08-04T23:48:49.503Z,97180.66
2022-08-04T23:51:16.518Z,97173.78
2022-08-04T23:54:03.152Z,97172.94
2022-08-04T23:56:32.154Z,97170.34
2022-08-04T23:58:58.773Z,97163.50
